createdAt,value
2019-04-26T00:02:29.902Z,66.10
2019-04-26T00:05:01.564Z,66.21
2019-04-26T00:07:33.489Z,66.24
2019-04-26T00:10:10.509Z,65.57
2019-04-26T00:12:56.303Z,65.14
2019-04-26T00:15:49.933Z,65.88
2019-04-26T00:18:21.688Z,65.57
2019-04-26T00:20:53.304Z,65.36
2019-04-26T00:23:24.904Z,65.95
2019-04-26T00:25:56.773Z,66.82
2019-04-26T00:28:28.449Z,67.67
2019-04-26T00:31:00.041Z,67.26
2019-04-26T00:33:31.669Z,67.51
2019-04-26T00:36:03.274Z,67.49
2019-04-26T00:38:35.028Z,67.64
2019-04-26T00:41:06.772Z,66.93
2019-04-26T00:43:38.588Z,68.16
2019-04-26T00:46:13.245Z,69.20
2019-04-26T00:48:45.635Z,68.94
2019-04-26T00:51:19.241Z,68.50
2019-04-26T00:53:51.711Z,67.73
2019-04-26T00:56:24.622Z,67.93
2019-04-26T00:58:56.855Z,68.30
2019-04-26T01:01:30.107Z,68.70
2019-04-26T01:04:01.686Z,68.94
2019-04-26T01:06:34.959Z,68.08
2019-04-26T01:09:08.971Z,68.90
2019-04-26T01:11:42.319Z,68.82
2019-04-26T01:14:15.491Z,68.84
2019-04-26T01:16:48.151Z,69.38
2019-04-26T01:19:20.952Z,70.16
2019-04-26T01:21:57.137Z,70.20
2019-04-26T01:24:32.271Z,69.09
2019-04-26T01:27:05.596Z,68.23
2019-04-26T01:29:39.102Z,68.06
2019-04-26T01:32:13.099Z,67.20
2019-04-26T01:34:47.976Z,68.03
2019-04-26T01:37:20.595Z,68.47
2019-04-26T01:39:58.170Z,69.25
2019-04-26T01:42:54.736Z,69.41
2019-04-26T01:45:37.080Z,69.67
2019-04-26T01:48:35.075Z,69.63
2019-04-26T01:51:07.537Z,70.07
2019-04-26T01:53:39.538Z,70.25
2019-04-26T01:56:11.142Z,70.43
2019-04-26T01:58:42.833Z,70.46
2019-04-26T02:01:27.674Z,69.66
2019-04-26T02:03:59.756Z,69.07
2019-04-26T02:06:34.902Z,69.33
2019-04-26T02:09:07.824Z,69.42
2019-04-26T02:11:40.328Z,69.61
2019-04-26T02:14:12.530Z,70.25
2019-04-26T02:16:48.413Z,71.05
2019-04-26T02:19:20.408Z,70.56
2019-04-26T02:22:01.079Z,70.21
2019-04-26T02:24:36.563Z,70.28
2019-04-26T02:27:17.270Z,70.47
2019-04-26T02:29:48.862Z,71.21
2019-04-26T02:32:20.928Z,71.02
2019-04-26T02:34:52.609Z,70.50
2019-04-26T02:37:24.169Z,70.79
2019-04-26T02:39:57.147Z,70.96
2019-04-26T02:42:51.306Z,71.22
2019-04-26T02:46:03.647Z,71.19
2019-04-26T02:49:13.530Z,71.18
2019-04-26T02:51:57.627Z,71.41
2019-04-26T02:54:47.455Z,71.35
2019-04-26T02:57:40.908Z,71.14
2019-04-26T03:00:15.040Z,70.86
2019-04-26T03:02:54.145Z,71.21
2019-04-26T03:05:26.210Z,71.34
2019-04-26T03:08:16.731Z,71.46
2019-04-26T03:11:06.114Z,72.75
2019-04-26T03:13:58.321Z,72.51
2019-04-26T03:17:06.494Z,72.93
2019-04-26T03:20:00.675Z,73.45
2019-04-26T03:23:14.541Z,73.24
2019-04-26T03:26:43.360Z,73.00
2019-04-26T03:30:20.060Z,73.05
2019-04-26T03:33:23.522Z,72.66
2019-04-26T03:36:27.752Z,72.30
2019-04-26T03:39:42.929Z,72.61
2019-04-26T03:42:59.584Z,72.87
2019-04-26T03:46:37.733Z,73.37
2019-04-26T03:50:08.585Z,74.31
2019-04-26T03:53:16.907Z,74.58
2019-04-26T03:56:43.652Z,74.02
2019-04-26T04:00:05.381Z,73.53
2019-04-26T04:03:10.537Z,74.30
2019-04-26T04:05:47.854Z,74.19
2019-04-26T04:08:27.539Z,72.87
2019-04-26T04:11:05.668Z,73.21
2019-04-26T04:14:15.032Z,72.67
2019-04-26T04:17:17.574Z,72.57
2019-04-26T04:20:49.090Z,72.79
2019-04-26T04:23:49.803Z,72.48
2019-04-26T04:27:06.284Z,72.81
2019-04-26T04:29:55.966Z,72.93
2019-04-26T04:32:49.664Z,73.03
2019-04-26T04:35:23.825Z,73.16
2019-04-26T04:38:09.493Z,73.28
2019-04-26T04:41:17.438Z,73.51
2019-04-26T04:44:08.875Z,73.49
2019-04-26T04:47:23.601Z,73.92
2019-04-26T04:50:07.765Z,73.41
2019-04-26T04:53:11.313Z,74.00
2019-04-26T04:56:28.655Z,73.96
2019-04-26T04:59:04.704Z,73.72
2019-04-26T05:02:22.161Z,73.78
2019-04-26T05:05:25.773Z,73.79
2019-04-26T05:08:45.458Z,73.12
2019-04-26T05:11:26.538Z,73.23
2019-04-26T05:14:18.365Z,74.39
2019-04-26T05:17:51.603Z,74.76
2019-04-26T05:20:37.343Z,74.25
2019-04-26T05:24:15.728Z,74.57
2019-04-26T05:27:40.799Z,74.55
2019-04-26T05:31:08.881Z,72.99
2019-04-26T05:34:10.798Z,72.85
2019-04-26T05:37:37.338Z,74.04
2019-04-26T05:40:57.798Z,73.91
2019-04-26T05:43:50.243Z,73.75
2019-04-26T05:47:30.659Z,72.87
2019-04-26T05:51:02.750Z,73.25
2019-04-26T05:54:33.994Z,73.25
2019-04-26T05:57:22.516Z,73.15
2019-04-26T06:00:55.747Z,73.72
2019-04-26T06:04:24.900Z,73.01
2019-04-26T06:07:40.929Z,72.66
2019-04-26T06:10:35.378Z,72.34
2019-04-26T06:14:08.487Z,72.03
2019-04-26T06:17:33.682Z,71.97
2019-04-26T06:20:41.182Z,71.63
2019-04-26T06:23:46.921Z,71.78
2019-04-26T06:27:14.138Z,71.68
2019-04-26T06:30:10.238Z,71.05
2019-04-26T06:33:15.536Z,71.59
2019-04-26T06:35:49.507Z,71.34
2019-04-26T06:39:09.671Z,71.26
2019-04-26T06:42:49.305Z,71.40
2019-04-26T06:46:22.055Z,71.26
2019-04-26T06:49:59.319Z,70.94
2019-04-26T06:52:35.251Z,71.48
2019-04-26T06:55:20.981Z,71.37
2019-04-26T06:58:23.712Z,70.98
2019-04-26T07:01:22.810Z,70.61
2019-04-26T07:04:59.170Z,70.92
2019-04-26T07:08:33.053Z,70.97
2019-04-26T07:12:21.051Z,71.26
2019-04-26T07:15:54.780Z,70.76
2019-04-26T07:19:24.459Z,70.46
2019-04-26T07:22:48.182Z,70.59
2019-04-26T07:26:20.263Z,69.89
2019-04-26T07:29:45.210Z,70.41
2019-04-26T07:32:53.692Z,70.68
2019-04-26T07:36:07.694Z,70.42
2019-04-26T07:39:25.717Z,70.53
2019-04-26T07:43:11.232Z,70.27
2019-04-26T07:46:31.782Z,70.65
2019-04-26T07:49:59.360Z,71.03
2019-04-26T07:53:09.268Z,71.32
2019-04-26T07:56:03.570Z,71.70
2019-04-26T08:00:02.812Z,72.14
2019-04-26T08:03:04.108Z,73.09
2019-04-26T08:06:28.786Z,73.74
2019-04-26T08:09:10.895Z,74.44
2019-04-26T08:11:51.317Z,74.24
2019-04-26T08:14:37.725Z,74.52
2019-04-26T08:17:39.570Z,74.66
2019-04-26T08:20:43.398Z,75.21
2019-04-26T08:23:37.893Z,75.28
2019-04-26T08:26:00.572Z,75.69
2019-04-26T08:28:36.755Z,76.33
2019-04-26T08:31:15.522Z,76.24
2019-04-26T08:33:54.603Z,77.04
2019-04-26T08:36:28.786Z,77.82
2019-04-26T08:39:04.697Z,78.10
2019-04-26T08:41:40.184Z,77.66
2019-04-26T08:44:25.500Z,78.12
2019-04-26T08:47:13.934Z,78.73
2019-04-26T08:50:01.268Z,78.44
2019-04-26T08:52:36.682Z,78.65
2019-04-26T08:55:10.817Z,78.98
2019-04-26T08:57:45.683Z,79.29
2019-04-26T09:00:33.771Z,78.95
2019-04-26T09:03:13.283Z,79.70
2019-04-26T09:06:09.070Z,79.20
2019-04-26T09:08:43.507Z,79.22
2019-04-26T09:11:26.071Z,79.08
2019-04-26T09:13:54.292Z,78.61
2019-04-26T09:16:25.961Z,78.85
2019-04-26T09:18:59.747Z,78.52
2019-04-26T09:21:41.678Z,78.24
2019-04-26T09:24:37.807Z,78.25
2019-04-26T09:27:37.415Z,77.34
2019-04-26T09:30:14.316Z,78.67
2019-04-26T09:33:04.828Z,79.14
2019-04-26T09:35:36.494Z,78.31
2019-04-26T09:38:08.092Z,78.80
2019-04-26T09:40:39.822Z,79.14
2019-04-26T09:43:39.116Z,79.24
2019-04-26T09:46:38.829Z,78.95
2019-04-26T09:49:32.099Z,79.06
2019-04-26T09:52:05.350Z,78.86
2019-04-26T09:54:36.940Z,78.39
2019-04-26T09:57:08.591Z,77.95
2019-04-26T09:59:41.196Z,78.95
2019-04-26T10:02:14.540Z,78.98
2019-04-26T10:04:46.134Z,78.83
2019-04-26T10:07:17.746Z,80.29
2019-04-26T10:09:51.730Z,79.41
2019-04-26T10:12:29.263Z,79.16
2019-04-26T10:15:17.110Z,79.86
2019-04-26T10:17:50.177Z,79.33
2019-04-26T10:20:21.898Z,78.82
2019-04-26T10:22:53.476Z,79.57
2019-04-26T10:25:25.094Z,79.50
2019-04-26T10:27:56.694Z,79.75
2019-04-26T10:30:28.286Z,78.60
2019-04-26T10:33:02.183Z,78.41
2019-04-26T10:35:33.648Z,78.46
2019-04-26T10:38:05.568Z,77.30
2019-04-26T10:40:37.166Z,77.67
2019-04-26T10:43:09.990Z,77.42
2019-04-26T10:45:41.687Z,78.05
2019-04-26T10:48:13.865Z,78.16
2019-04-26T10:50:46.572Z,78.26
2019-04-26T10:53:37.381Z,77.96
2019-04-26T10:56:41.409Z,75.92
2019-04-26T10:59:22.803Z,76.76
2019-04-26T11:01:54.511Z,77.75
2019-04-26T11:04:26.086Z,76.86
2019-04-26T11:06:58.097Z,76.68
2019-04-26T11:09:31.114Z,76.87
2019-04-26T11:12:05.055Z,76.52
2019-04-26T11:14:36.675Z,76.71
2019-04-26T11:17:11.599Z,76.29
2019-04-26T11:19:44.165Z,74.94
2019-04-26T11:22:15.421Z,74.47
2019-04-26T11:24:50.128Z,74.88
2019-04-26T11:27:20.235Z,73.58
2019-04-26T11:29:53.949Z,74.66
2019-04-26T11:32:25.193Z,73.87
2019-04-26T11:34:58.642Z,72.80
2019-04-26T11:37:30.054Z,73.28
2019-04-26T11:40:01.650Z,72.84
2019-04-26T11:42:34.957Z,74.43
2019-04-26T11:45:14.724Z,74.79
2019-04-26T11:47:55.415Z,74.78
2019-04-26T11:50:17.861Z,75.36
2019-04-26T11:52:49.617Z,76.12
2019-04-26T11:55:21.232Z,76.13
2019-04-26T11:57:52.823Z,76.28
2019-04-26T12:00:29.010Z,76.03
2019-04-26T12:03:00.603Z,76.71
2019-04-26T12:05:51.107Z,77.37
2019-04-26T12:08:26.785Z,77.58
2019-04-26T12:10:58.631Z,77.44
2019-04-26T12:13:30.228Z,76.95
2019-04-26T12:16:01.807Z,76.91
2019-04-26T12:18:33.437Z,77.18
2019-04-26T12:21:05.018Z,76.70
2019-04-26T12:23:36.614Z,77.63
2019-04-26T12:26:08.243Z,77.69
2019-04-26T12:28:41.300Z,76.99
2019-04-26T12:31:15.042Z,77.04
2019-04-26T12:33:46.267Z,77.03
2019-04-26T12:36:17.886Z,75.56
2019-04-26T12:38:49.480Z,76.56
2019-04-26T12:41:39.215Z,76.96
2019-04-26T12:43:58.943Z,76.60
2019-04-26T12:46:35.068Z,76.15
2019-04-26T12:49:06.688Z,75.63
2019-04-26T12:51:42.648Z,76.09
2019-04-26T12:54:11.949Z,75.21
2019-04-26T12:56:43.532Z,75.75
2019-04-26T12:59:15.911Z,74.61
2019-04-26T13:01:48.557Z,73.32
2019-04-26T13:04:20.581Z,74.11
2019-04-26T13:07:06.932Z,74.31
2019-04-26T13:09:37.652Z,74.88
2019-04-26T13:12:29.756Z,73.51
2019-04-26T13:16:00.553Z,72.62
2019-04-26T13:18:32.136Z,72.80
2019-04-26T13:21:04.373Z,73.85
2019-04-26T13:23:36.135Z,73.78
2019-04-26T13:26:07.935Z,73.82
2019-04-26T13:28:39.494Z,74.14
2019-04-26T13:31:11.106Z,74.53
2019-04-26T13:33:43.670Z,73.63
2019-04-26T13:36:15.257Z,73.54
2019-04-26T13:38:46.829Z,74.33
2019-04-26T13:41:18.429Z,73.67
2019-04-26T13:43:49.989Z,74.31
2019-04-26T13:46:39.071Z,75.23
2019-04-26T13:49:29.604Z,75.17
2019-04-26T13:52:01.265Z,74.57
2019-04-26T13:54:33.048Z,74.24
2019-04-26T13:57:06.179Z,74.73
2019-04-26T13:59:38.054Z,75.40
2019-04-26T14:02:11.806Z,75.41
2019-04-26T14:04:43.002Z,75.69
2019-04-26T14:07:14.590Z,75.48
2019-04-26T14:09:46.167Z,75.84
2019-04-26T14:12:18.986Z,74.77
2019-04-26T14:14:50.856Z,75.17
2019-04-26T14:17:25.995Z,74.92
2019-04-26T14:19:55.816Z,73.48
2019-04-26T14:22:32.265Z,73.75
2019-04-26T14:25:08.146Z,74.93
2019-04-26T14:27:49.820Z,75.56
2019-04-26T14:30:19.599Z,75.25
2019-04-26T14:32:53.313Z,75.78
2019-04-26T14:35:25.562Z,75.25
2019-04-26T14:37:57.161Z,74.74
2019-04-26T14:40:28.791Z,74.80
2019-04-26T14:43:07.014Z,74.99
2019-04-26T14:45:36.412Z,75.34
2019-04-26T14:48:19.909Z,74.56
2019-04-26T14:50:40.369Z,74.75
2019-04-26T14:53:13.089Z,74.98
2019-04-26T14:55:44.688Z,74.36
2019-04-26T14:58:16.319Z,73.72
2019-04-26T15:00:51.429Z,73.08
2019-04-26T15:03:46.031Z,74.42
2019-04-26T15:06:22.207Z,72.79
2019-04-26T15:08:53.970Z,73.96
2019-04-26T15:11:25.553Z,73.91
2019-04-26T15:13:57.179Z,73.64
2019-04-26T15:16:28.796Z,73.72
2019-04-26T15:19:00.379Z,73.33
2019-04-26T15:21:34.341Z,72.05
2019-04-26T15:24:06.077Z,72.13
2019-04-26T15:26:37.646Z,70.63
2019-04-26T15:29:09.209Z,72.31
2019-04-26T15:31:40.799Z,72.61
2019-04-26T15:34:12.367Z,72.67
2019-04-26T15:36:47.997Z,74.07
2019-04-26T15:39:26.994Z,74.60
2019-04-26T15:42:29.314Z,72.46
2019-04-26T15:45:13.068Z,71.94
2019-04-26T15:48:02.310Z,71.21
2019-04-26T15:50:40.986Z,71.68
2019-04-26T15:53:14.650Z,70.09
2019-04-26T15:55:46.077Z,69.79
2019-04-26T15:58:17.700Z,70.34
2019-04-26T16:00:49.330Z,69.77
2019-04-26T16:03:22.664Z,69.92
2019-04-26T16:05:54.520Z,69.94
2019-04-26T16:08:26.230Z,70.01
2019-04-26T16:10:57.814Z,69.38
2019-04-26T16:13:29.551Z,69.18
2019-04-26T16:16:02.061Z,69.49
2019-04-26T16:18:34.703Z,69.19
2019-04-26T16:21:06.350Z,69.95
2019-04-26T16:23:41.120Z,69.59
2019-04-26T16:26:12.874Z,69.86
2019-04-26T16:29:06.542Z,71.57
2019-04-26T16:31:47.037Z,70.30
2019-04-26T16:34:19.688Z,70.33
2019-04-26T16:36:52.595Z,70.82
2019-04-26T16:39:28.420Z,70.72
2019-04-26T16:41:59.320Z,70.85
2019-04-26T16:44:33.311Z,70.03
2019-04-26T16:47:05.936Z,69.07
2019-04-26T16:49:41.984Z,69.17
2019-04-26T16:52:13.584Z,69.06
2019-04-26T16:54:44.772Z,69.23
2019-04-26T16:57:16.468Z,70.36
2019-04-26T16:59:54.335Z,70.44
2019-04-26T17:02:26.497Z,70.12
2019-04-26T17:04:54.884Z,70.30
2019-04-26T17:07:27.289Z,69.99
2019-04-26T17:10:00.061Z,70.71
2019-04-26T17:12:33.139Z,70.97
2019-04-26T17:15:05.661Z,70.20
2019-04-26T17:17:37.365Z,70.40
2019-04-26T17:20:10.795Z,70.55
2019-04-26T17:23:07.748Z,70.32
2019-04-26T17:25:55.201Z,70.62
2019-04-26T17:28:29.853Z,71.44
2019-04-26T17:31:02.139Z,71.71
2019-04-26T17:33:33.964Z,71.87
2019-04-26T17:36:06.722Z,72.71
2019-04-26T17:38:39.310Z,72.55
2019-04-26T17:41:13.658Z,72.22
2019-04-26T17:43:47.544Z,71.84
2019-04-26T17:46:20.017Z,72.52
2019-04-26T17:48:52.101Z,72.62
2019-04-26T17:51:23.843Z,73.01
2019-04-26T17:54:18.916Z,74.36
2019-04-26T17:56:31.414Z,75.62
2019-04-26T17:59:03.137Z,75.66
2019-04-26T18:01:46.814Z,76.06
2019-04-26T18:04:10.890Z,75.77
2019-04-26T18:06:45.374Z,75.02
2019-04-26T18:09:38.040Z,75.93
2019-04-26T18:11:50.981Z,75.06
2019-04-26T18:14:29.565Z,75.60
2019-04-26T18:17:05.807Z,75.03
2019-04-26T18:19:47.282Z,75.79
2019-04-26T18:22:40.613Z,76.49
2019-04-26T18:25:13.097Z,77.26
2019-04-26T18:27:45.821Z,77.52
2019-04-26T18:30:17.946Z,77.72
2019-04-26T18:32:49.738Z,77.89
2019-04-26T18:35:21.407Z,77.82
2019-04-26T18:37:53.713Z,77.83
2019-04-26T18:40:25.435Z,77.74
2019-04-26T18:42:57.045Z,78.42
2019-04-26T18:45:30.109Z,78.71
2019-04-26T18:48:04.631Z,78.39
2019-04-26T18:50:36.528Z,78.04
2019-04-26T18:53:25.996Z,78.13
2019-04-26T18:55:59.297Z,78.37
2019-04-26T18:58:34.792Z,79.23
2019-04-26T19:01:05.597Z,79.37
2019-04-26T19:03:37.314Z,79.43
2019-04-26T19:06:09.227Z,79.48
2019-04-26T19:08:47.680Z,79.12
2019-04-26T19:11:14.481Z,78.62
2019-04-26T19:13:59.133Z,78.60
2019-04-26T19:16:59.198Z,78.71
2019-04-26T19:19:49.376Z,78.69
2019-04-26T19:22:22.569Z,78.76
2019-04-26T19:24:57.443Z,79.10
2019-04-26T19:27:27.779Z,79.14
2019-04-26T19:30:04.301Z,79.10
2019-04-26T19:32:35.455Z,79.22
2019-04-26T19:35:11.917Z,79.50
2019-04-26T19:37:40.294Z,79.75
2019-04-26T19:40:12.384Z,79.72
2019-04-26T19:42:44.366Z,79.44
2019-04-26T19:45:27.867Z,79.99
2019-04-26T19:48:12.431Z,80.57
2019-04-26T19:51:02.075Z,80.73
2019-04-26T19:53:40.140Z,80.69
2019-04-26T19:56:24.883Z,80.88
2019-04-26T19:58:57.373Z,81.25
2019-04-26T20:01:28.242Z,81.48
2019-04-26T20:03:59.848Z,81.15
2019-04-26T20:06:32.264Z,80.95
2019-04-26T20:09:05.704Z,80.96
2019-04-26T20:11:37.415Z,80.95
2019-04-26T20:14:09.164Z,80.98
2019-04-26T20:16:43.346Z,81.20
2019-04-26T20:19:17.759Z,81.58
2019-04-26T20:21:49.738Z,81.34
2019-04-26T20:24:21.539Z,81.24
2019-04-26T20:26:53.227Z,81.11
2019-04-26T20:29:24.851Z,81.06
2019-04-26T20:32:24.030Z,81.16
2019-04-26T20:35:14.686Z,81.15
2019-04-26T20:37:46.361Z,81.44
2019-04-26T20:40:22.499Z,80.94
2019-04-26T20:42:57.287Z,80.61
2019-04-26T20:45:38.390Z,80.55
2019-04-26T20:47:58.722Z,80.45
2019-04-26T20:50:34.477Z,80.29
2019-04-26T20:53:03.685Z,80.25
2019-04-26T20:55:35.286Z,80.51
2019-04-26T20:58:08.646Z,80.61
2019-04-26T21:00:53.515Z,80.67
2019-04-26T21:03:23.125Z,80.71
2019-04-26T21:05:52.803Z,80.56
2019-04-26T21:08:25.687Z,80.60
2019-04-26T21:10:56.039Z,80.50
2019-04-26T21:13:30.753Z,80.20
2019-04-26T21:16:03.570Z,80.17
2019-04-26T21:18:40.238Z,80.24
2019-04-26T21:21:10.481Z,80.57
2019-04-26T21:23:42.259Z,80.71
2019-04-26T21:26:23.939Z,80.81
2019-04-26T21:29:20.295Z,80.27
2019-04-26T21:32:08.487Z,80.46
2019-04-26T21:34:40.653Z,80.44
2019-04-26T21:37:35.850Z,80.94
2019-04-26T21:40:26.162Z,80.76
2019-04-26T21:42:59.606Z,80.19
2019-04-26T21:45:31.214Z,80.55
2019-04-26T21:48:06.801Z,80.74
2019-04-26T21:50:38.976Z,80.80
2019-04-26T21:53:09.372Z,80.93
2019-04-26T21:55:41.044Z,80.96
2019-04-26T21:58:14.177Z,80.86
2019-04-26T22:01:10.952Z,81.18
2019-04-26T22:03:47.525Z,81.35
2019-04-26T22:06:15.378Z,81.23
2019-04-26T22:08:59.299Z,81.41
2019-04-26T22:11:29.246Z,81.33
2019-04-26T22:14:07.886Z,81.35
2019-04-26T22:17:04.654Z,81.21
2019-04-26T22:19:53.482Z,81.22
2019-04-26T22:22:44.378Z,80.86
2019-04-26T22:25:17.105Z,80.99
2019-04-26T22:27:48.692Z,81.21
2019-04-26T22:30:28.298Z,81.34
2019-04-26T22:32:58.848Z,81.34
2019-04-26T22:35:30.505Z,81.34
2019-04-26T22:38:03.665Z,81.30
2019-04-26T22:40:35.412Z,81.37
2019-04-26T22:43:34.795Z,81.24
2019-04-26T22:46:28.871Z,81.48
2019-04-26T22:49:01.321Z,81.46
2019-04-26T22:51:33.526Z,81.40
2019-04-26T22:54:06.367Z,81.89
2019-04-26T22:56:38.429Z,82.03
2019-04-26T22:59:11.248Z,81.72
2019-04-26T23:01:47.085Z,81.73
2019-04-26T23:04:23.610Z,82.09
2019-04-26T23:06:49.779Z,82.25
2019-04-26T23:09:23.199Z,82.07
2019-04-26T23:12:04.480Z,81.83
2019-04-26T23:14:55.073Z,81.66
2019-04-26T23:17:52.290Z,81.79
2019-04-26T23:20:34.293Z,81.76
2019-04-26T23:23:08.537Z,81.83
2019-04-26T23:25:38.866Z,81.66
2019-04-26T23:28:10.447Z,81.48
2019-04-26T23:30:42.482Z,81.61
2019-04-26T23:33:15.797Z,81.77
2019-04-26T23:35:47.802Z,81.95
2019-04-26T23:38:19.441Z,82.20
2019-04-26T23:40:51.049Z,82.14
2019-04-26T23:43:25.557Z,82.25
2019-04-26T23:45:56.054Z,82.67
2019-04-26T23:48:27.604Z,82.51
2019-04-26T23:50:59.816Z,82.37
2019-04-26T23:53:33.653Z,82.34
2019-04-26T23:56:05.796Z,82.12
2019-04-26T23:58:40.250Z,81.88
